createdAt,value
2022-08-18T00:00:11.010Z,23.90
2022-08-18T00:03:27.273Z,23.80
2022-08-18T00:05:55.939Z,23.80
2022-08-18T00:08:23.165Z,23.80
2022-08-18T00:10:50.384Z,23.70
2022-08-18T00:13:18.267Z,23.70
2022-08-18T00:15:49.212Z,23.60
2022-08-18T00:18:17.145Z,23.60
2022-08-18T00:20:44.640Z,23.50
2022-08-18T00:23:13.428Z,23.50
2022-08-18T00:25:40.694Z,23.50
2022-08-18T00:28:07.863Z,23.40
2022-08-18T00:30:35.124Z,23.40
2022-08-18T00:33:04.135Z,23.40
2022-08-18T00:35:37.739Z,23.30
2022-08-18T00:38:08.362Z,23.30
2022-08-18T00:40:52.436Z,23.30
2022-08-18T00:43:37.258Z,23.20
2022-08-18T00:46:16.438Z,23.20
2022-08-18T00:48:48.851Z,23.10
2022-08-18T00:51:43.327Z,23.10
2022-08-18T00:54:24.009Z,23.10
2022-08-18T00:56:58.584Z,23.10
2022-08-18T00:59:49.353Z,23.00
2022-08-18T01:02:48.201Z,23.00
2022-08-18T01:05:41.086Z,22.90
2022-08-18T01:08:14.598Z,22.90
2022-08-18T01:10:45.288Z,22.90
2022-08-18T01:13:12.675Z,22.80
2022-08-18T01:15:40.477Z,22.80
2022-08-18T01:18:31.311Z,22.80
2022-08-18T01:21:37.229Z,22.70
2022-08-18T01:24:10.185Z,22.60
2022-08-18T01:26:45.672Z,22.60
2022-08-18T01:29:18.910Z,22.60
2022-08-18T01:31:57.193Z,22.50
2022-08-18T01:34:27.505Z,22.50
2022-08-18T01:36:56.028Z,22.50
2022-08-18T01:41:23.420Z,22.50
2022-08-18T01:42:13.993Z,22.40
2022-08-18T01:44:41.859Z,22.40
2022-08-18T01:47:12.675Z,22.40
2022-08-18T01:49:43.715Z,22.30
2022-08-18T01:52:20.274Z,22.30
2022-08-18T01:54:52.105Z,22.30
2022-08-18T01:57:21.607Z,22.20
2022-08-18T01:59:48.834Z,22.20
2022-08-18T02:02:25.366Z,22.20
2022-08-18T02:05:01.557Z,22.10
2022-08-18T02:07:36.116Z,22.10
2022-08-18T02:10:11.880Z,22.00
2022-08-18T02:12:41.194Z,22.00
2022-08-18T02:15:09.952Z,22.00
2022-08-18T02:17:43.285Z,21.90
2022-08-18T02:20:15.440Z,21.90
2022-08-18T02:22:43.850Z,21.90
2022-08-18T02:25:12.900Z,21.80
2022-08-18T02:27:40.279Z,21.80
2022-08-18T02:30:12.762Z,21.80
2022-08-18T02:32:40.566Z,21.70
2022-08-18T02:35:11.666Z,21.60
2022-08-18T02:37:54.396Z,21.60
2022-08-18T02:40:21.955Z,21.60
2022-08-18T02:42:50.111Z,21.60
2022-08-18T02:45:17.405Z,21.60
2022-08-18T02:47:45.553Z,21.60
2022-08-18T02:50:13.949Z,21.50
2022-08-18T02:52:41.356Z,21.50
2022-08-18T02:55:10.304Z,21.40
2022-08-18T02:57:46.942Z,21.40
2022-08-18T03:00:19.670Z,21.40
2022-08-18T03:02:52.155Z,21.40
2022-08-18T03:05:19.925Z,21.30
2022-08-18T03:07:46.980Z,21.30
2022-08-18T03:10:33.132Z,21.20
2022-08-18T03:13:02.323Z,21.20
2022-08-18T03:15:29.698Z,21.10
2022-08-18T03:17:58.225Z,21.10
2022-08-18T03:20:30.504Z,21.10
2022-08-18T03:22:59.331Z,21.10
2022-08-18T03:25:26.589Z,21.10
2022-08-18T03:27:53.734Z,21.00
2022-08-18T03:30:20.851Z,21.00
2022-08-18T03:32:48.056Z,21.00
2022-08-18T03:35:15.205Z,21.00
2022-08-18T03:37:43.104Z,20.90
2022-08-18T03:40:11.181Z,20.90
2022-08-18T03:42:39.119Z,20.90
2022-08-18T03:45:13.419Z,20.90
2022-08-18T03:47:46.030Z,20.80
2022-08-18T03:50:14.103Z,20.80
2022-08-18T03:52:41.862Z,20.80
2022-08-18T03:55:09.465Z,20.70
2022-08-18T03:57:49.220Z,20.70
2022-08-18T04:00:17.987Z,20.70
2022-08-18T04:02:45.251Z,20.70
2022-08-18T04:05:14.094Z,20.70
2022-08-18T04:07:41.302Z,20.70
2022-08-18T04:10:19.072Z,20.60
2022-08-18T04:12:47.130Z,20.60
2022-08-18T04:15:14.498Z,20.60
2022-08-18T04:18:03.105Z,20.60
2022-08-18T04:20:29.919Z,20.60
2022-08-18T04:22:56.989Z,20.60
2022-08-18T04:25:23.989Z,20.60
2022-08-18T04:27:51.719Z,20.60
2022-08-18T04:30:19.013Z,20.60
2022-08-18T04:32:46.087Z,20.60
2022-08-18T04:35:14.259Z,20.60
2022-08-18T04:37:41.816Z,20.60
2022-08-18T04:40:10.779Z,20.70
2022-08-18T04:42:43.493Z,20.70
2022-08-18T04:45:11.045Z,20.70
2022-08-18T04:47:41.701Z,20.70
2022-08-18T04:50:11.182Z,20.70
2022-08-18T04:52:56.654Z,20.70
2022-08-18T04:55:23.994Z,20.80
2022-08-18T04:57:51.112Z,20.80
2022-08-18T05:00:19.591Z,20.80
2022-08-18T05:02:47.020Z,20.90
2022-08-18T05:05:14.122Z,20.90
2022-08-18T05:07:47.593Z,21.00
2022-08-18T05:10:17.582Z,21.10
2022-08-18T05:12:48.069Z,21.20
2022-08-18T05:15:17.707Z,21.30
2022-08-18T05:17:45.329Z,21.30
2022-08-18T05:20:16.775Z,21.40
2022-08-18T05:22:45.699Z,21.50
2022-08-18T05:25:13.415Z,21.60
2022-08-18T05:27:43.694Z,21.80
2022-08-18T05:30:15.344Z,21.90
2022-08-18T05:32:49.260Z,22.00
2022-08-18T05:35:25.054Z,22.10
2022-08-18T05:38:23.973Z,22.20
2022-08-18T05:41:27.771Z,22.40
2022-08-18T05:43:57.361Z,22.60
2022-08-18T05:46:55.085Z,22.90
2022-08-18T05:49:26.211Z,23.10
2022-08-18T05:52:06.399Z,23.30
2022-08-18T05:55:21.161Z,23.50
2022-08-18T05:58:01.918Z,23.80
2022-08-18T06:00:31.349Z,24.10
2022-08-18T06:03:22.140Z,24.20
2022-08-18T06:06:08.335Z,24.50
2022-08-18T06:08:53.948Z,24.70
2022-08-18T06:11:22.433Z,25.00
2022-08-18T06:13:57.754Z,25.20
2022-08-18T06:17:05.758Z,25.40
2022-08-18T06:19:51.376Z,25.60
2022-08-18T06:22:48.185Z,25.90
2022-08-18T06:25:55.371Z,26.10
2022-08-18T06:28:23.100Z,26.40
2022-08-18T06:31:13.771Z,26.70
2022-08-18T06:34:16.611Z,27.00
2022-08-18T06:36:58.755Z,27.20
2022-08-18T06:39:45.256Z,27.40
2022-08-18T06:42:18.010Z,27.60
2022-08-18T06:44:53.002Z,27.90
2022-08-18T06:47:37.610Z,28.10
2022-08-18T06:50:22.266Z,28.20
2022-08-18T06:53:06.989Z,28.60
2022-08-18T06:55:54.337Z,28.90
2022-08-18T06:58:30.420Z,29.00
2022-08-18T07:01:07.089Z,29.20
2022-08-18T07:03:36.924Z,29.40
2022-08-18T07:06:28.038Z,29.60
2022-08-18T07:09:24.218Z,29.60
2022-08-18T07:12:08.154Z,29.90
2022-08-18T07:14:57.555Z,30.20
2022-08-18T07:17:42.433Z,30.50
2022-08-18T07:20:25.842Z,30.60
2022-08-18T07:23:08.348Z,30.80
2022-08-18T07:25:46.758Z,31.00
2022-08-18T07:28:54.103Z,31.10
2022-08-18T07:31:49.031Z,31.00
2022-08-18T07:34:36.560Z,31.40
2022-08-18T07:37:18.561Z,31.50
2022-08-18T07:40:07.120Z,31.30
2022-08-18T07:43:01.630Z,31.60
2022-08-18T07:45:46.944Z,31.60
2022-08-18T07:48:38.145Z,31.60
2022-08-18T07:51:21.253Z,31.90
2022-08-18T07:54:02.542Z,31.80
2022-08-18T07:57:00.031Z,32.00
2022-08-18T07:59:35.347Z,32.00
2022-08-18T08:02:57.620Z,31.90
2022-08-18T08:06:04.608Z,31.80
2022-08-18T08:08:44.805Z,31.70
2022-08-18T08:11:51.277Z,32.20
2022-08-18T08:14:35.751Z,32.50
2022-08-18T08:17:19.080Z,32.70
2022-08-18T08:20:08.738Z,32.80
2022-08-18T08:22:49.349Z,32.80
2022-08-18T08:25:45.871Z,33.10
2022-08-18T08:28:55.853Z,32.80
2022-08-18T08:31:46.014Z,33.30
2022-08-18T08:34:27.141Z,33.50
2022-08-18T08:37:04.537Z,33.40
2022-08-18T08:39:59.265Z,33.50
2022-08-18T08:42:49.126Z,33.80
2022-08-18T08:45:36.951Z,33.50
2022-08-18T08:48:23.165Z,33.60
2022-08-18T08:51:43.175Z,33.30
2022-08-18T08:54:29.458Z,33.50
2022-08-18T08:57:02.442Z,34.40
2022-08-18T08:59:29.913Z,34.60
2022-08-18T09:02:37.835Z,34.20
2022-08-18T09:05:23.861Z,34.40
2022-08-18T09:08:27.007Z,34.20
2022-08-18T09:11:49.623Z,34.90
2022-08-18T09:15:08.909Z,35.30
2022-08-18T09:18:10.829Z,35.10
2022-08-18T09:20:49.542Z,35.30
2022-08-18T09:23:42.571Z,34.90
2022-08-18T09:26:39.272Z,35.50
2022-08-18T09:29:46.543Z,36.00
2022-08-18T09:32:24.104Z,36.10
2022-08-18T09:35:40.017Z,35.40
2022-08-18T09:38:41.313Z,35.40
2022-08-18T09:41:32.954Z,35.40
2022-08-18T09:44:21.681Z,35.60
2022-08-18T09:46:57.406Z,35.60
2022-08-18T09:49:28.003Z,36.20
2022-08-18T09:51:58.352Z,36.50
2022-08-18T09:54:33.932Z,36.50
2022-08-18T09:57:06.218Z,36.50
2022-08-18T09:59:34.345Z,36.80
2022-08-18T10:02:32.440Z,36.90
2022-08-18T10:05:21.270Z,36.70
2022-08-18T10:08:07.755Z,36.80
2022-08-18T10:11:10.264Z,36.60
2022-08-18T10:14:23.417Z,36.60
2022-08-18T10:17:44.611Z,36.90
2022-08-18T10:20:34.792Z,37.20
2022-08-18T10:23:04.432Z,37.50
2022-08-18T10:25:47.854Z,37.40
2022-08-18T10:28:55.873Z,37.80
2022-08-18T10:31:27.421Z,37.80
2022-08-18T10:34:16.374Z,37.60
2022-08-18T10:36:53.329Z,37.10
2022-08-18T10:39:45.422Z,37.50
2022-08-18T10:42:22.512Z,37.70
2022-08-18T10:45:02.378Z,36.90
2022-08-18T10:47:34.268Z,36.70
2022-08-18T10:50:09.705Z,37.50
2022-08-18T10:56:33.029Z,37.00
2022-08-18T11:00:02.013Z,37.00
2022-08-18T11:05:45.012Z,36.50
2022-08-18T11:08:20.687Z,37.00
2022-08-18T11:11:27.778Z,37.10
2022-08-18T11:14:15.675Z,37.30
2022-08-18T11:17:02.243Z,37.30
2022-08-18T11:19:42.031Z,37.60
2022-08-18T11:22:31.565Z,37.70
2022-08-18T11:25:03.337Z,36.70
2022-08-18T11:27:35.852Z,36.60
2022-08-18T11:30:06.728Z,37.30
2022-08-18T11:35:51.685Z,37.30
2022-08-18T11:38:23.305Z,37.50
2022-08-18T11:41:11.760Z,37.50
2022-08-18T11:43:43.065Z,37.30
2022-08-18T11:46:41.552Z,37.20
2022-08-18T11:49:23.998Z,37.40
2022-08-18T11:52:26.075Z,38.20
2022-08-18T11:55:16.938Z,37.20
2022-08-18T12:00:48.766Z,37.30
2022-08-18T12:03:41.673Z,37.20
2022-08-18T12:06:23.592Z,37.30
2022-08-18T12:09:45.489Z,37.00
2022-08-18T12:12:30.546Z,37.20
2022-08-18T12:15:17.464Z,36.40
2022-08-18T12:20:37.541Z,36.50
2022-08-18T12:23:07.011Z,37.10
2022-08-18T12:25:34.016Z,37.10
2022-08-18T12:28:02.515Z,36.90
2022-08-18T12:30:29.731Z,36.20
2022-08-18T12:33:05.627Z,35.80
2022-08-18T12:35:37.587Z,35.90
2022-08-18T12:38:12.544Z,35.70
2022-08-18T12:40:42.203Z,36.00
2022-08-18T12:43:10.532Z,36.00
2022-08-18T12:45:39.127Z,35.50
2022-08-18T12:48:07.711Z,35.80
2022-08-18T12:50:49.650Z,35.80
2022-08-18T12:53:29.062Z,35.90
2022-08-18T12:55:58.318Z,36.30
2022-08-18T12:58:25.823Z,35.60
2022-08-18T13:00:52.970Z,35.30
2022-08-18T13:03:20.567Z,35.10
2022-08-18T13:05:48.082Z,35.50
2022-08-18T13:08:30.127Z,35.90
2022-08-18T13:11:00.423Z,35.90
2022-08-18T13:13:42.959Z,35.60
2022-08-18T13:16:16.230Z,35.40
2022-08-18T13:18:45.334Z,35.00
2022-08-18T13:21:18.021Z,35.30
2022-08-18T13:23:45.578Z,34.80
2022-08-18T13:26:28.394Z,35.00
2022-08-18T13:28:59.271Z,35.20
2022-08-18T13:31:27.458Z,34.80
2022-08-18T13:34:04.120Z,35.20
2022-08-18T13:36:44.446Z,34.60
2022-08-18T13:39:17.204Z,35.00
2022-08-18T13:41:46.318Z,34.50
2022-08-18T13:44:18.585Z,34.30
2022-08-18T13:46:48.458Z,34.60
2022-08-18T13:49:23.827Z,34.40
2022-08-18T13:52:01.016Z,35.40
2022-08-18T13:54:34.094Z,35.20
2022-08-18T13:57:04.887Z,35.80
2022-08-18T13:59:34.253Z,36.50
2022-08-18T14:02:08.384Z,37.40
2022-08-18T14:04:38.620Z,37.30
2022-08-18T14:07:10.509Z,36.90
2022-08-18T14:09:39.410Z,36.60
2022-08-18T14:12:28.243Z,36.20
2022-08-18T14:14:58.493Z,36.10
2022-08-18T14:17:26.834Z,35.80
2022-08-18T14:20:15.353Z,36.00
2022-08-18T14:23:21.786Z,35.60
2022-08-18T14:26:13.808Z,34.80
2022-08-18T14:28:41.587Z,35.20
2022-08-18T14:31:09.068Z,35.20
2022-08-18T14:33:50.326Z,35.50
2022-08-18T14:36:20.527Z,35.10
2022-08-18T14:38:59.319Z,34.80
2022-08-18T14:41:27.397Z,35.00
2022-08-18T14:44:12.999Z,36.30
2022-08-18T14:46:52.288Z,35.80
2022-08-18T14:49:28.660Z,35.50
2022-08-18T14:51:59.531Z,35.30
2022-08-18T14:54:30.139Z,35.20
2022-08-18T14:57:02.646Z,34.50
2022-08-18T14:59:30.946Z,34.60
2022-08-18T15:02:07.685Z,35.50
2022-08-18T15:04:52.953Z,35.90
2022-08-18T15:07:25.797Z,35.10
2022-08-18T15:10:15.051Z,34.00
2022-08-18T15:12:41.136Z,33.90
2022-08-18T15:15:13.022Z,35.10
2022-08-18T15:17:52.440Z,34.30
2022-08-18T15:20:29.633Z,34.20
2022-08-18T15:23:27.972Z,33.50
2022-08-18T15:25:56.684Z,34.40
2022-08-18T15:28:27.867Z,34.50
2022-08-18T15:33:42.772Z,33.80
2022-08-18T15:36:10.557Z,34.00
2022-08-18T15:38:43.908Z,34.50
2022-08-18T15:41:31.397Z,34.30
2022-08-18T15:43:59.195Z,34.30
2022-08-18T15:46:27.037Z,34.90
2022-08-18T15:48:55.774Z,34.20
2022-08-18T15:51:23.212Z,34.80
2022-08-18T15:53:50.925Z,34.80
2022-08-18T15:56:22.822Z,35.30
2022-08-18T15:58:53.604Z,35.10
2022-08-18T16:01:30.336Z,34.60
2022-08-18T16:04:01.369Z,34.50
2022-08-18T16:06:32.483Z,34.80
2022-08-18T16:09:01.505Z,34.50
2022-08-18T16:11:29.978Z,33.50
2022-08-18T16:14:02.471Z,33.00
2022-08-18T16:16:35.807Z,32.70
2022-08-18T16:19:08.398Z,32.20
2022-08-18T16:21:39.862Z,32.20
2022-08-18T16:24:08.205Z,32.20
2022-08-18T16:26:35.549Z,32.20
2022-08-18T16:29:03.479Z,32.80
2022-08-18T16:31:30.583Z,33.40
2022-08-18T16:33:58.270Z,33.90
2022-08-18T16:36:26.406Z,33.70
2022-08-18T16:38:58.113Z,33.20
2022-08-18T16:41:26.681Z,32.90
2022-08-18T16:43:54.585Z,32.70
2022-08-18T16:46:26.957Z,33.40
2022-08-18T16:48:57.335Z,33.70
2022-08-18T16:51:27.947Z,33.80
2022-08-18T16:53:55.482Z,34.20
2022-08-18T16:56:27.658Z,33.90
2022-08-18T16:59:14.974Z,33.60
2022-08-18T17:02:02.030Z,33.30
2022-08-18T17:04:35.293Z,33.30
2022-08-18T17:07:05.401Z,33.50
2022-08-18T17:09:34.314Z,33.70
2022-08-18T17:12:02.521Z,33.80
2022-08-18T17:14:32.548Z,33.40
2022-08-18T17:17:00.669Z,33.00
2022-08-18T17:19:33.664Z,32.70
2022-08-18T17:22:05.089Z,32.70
2022-08-18T17:24:33.151Z,32.90
2022-08-18T17:27:26.095Z,32.50
2022-08-18T17:30:16.072Z,32.70
2022-08-18T17:33:05.863Z,32.20
2022-08-18T17:35:46.258Z,31.70
2022-08-18T17:38:40.427Z,31.50
2022-08-18T17:41:07.897Z,31.60
2022-08-18T17:46:30.537Z,32.10
2022-08-18T17:49:16.141Z,31.90
2022-08-18T17:51:52.463Z,31.60
2022-08-18T17:54:49.413Z,31.70
2022-08-18T17:57:32.611Z,32.00
2022-08-18T18:00:11.301Z,32.00
2022-08-18T18:02:46.451Z,31.80
2022-08-18T18:05:19.139Z,31.90
2022-08-18T18:07:52.488Z,31.90
2022-08-18T18:11:04.484Z,32.00
2022-08-18T18:13:33.130Z,31.80
2022-08-18T18:16:21.223Z,31.70
2022-08-18T18:19:03.304Z,31.60
2022-08-18T18:22:00.393Z,31.60
2022-08-18T18:24:34.425Z,31.50
2022-08-18T18:27:02.448Z,31.40
2022-08-18T18:29:37.698Z,31.30
2022-08-18T18:33:13.485Z,30.90
2022-08-18T18:35:50.082Z,31.00
2022-08-18T18:38:24.319Z,31.00
2022-08-18T18:41:03.869Z,31.00
2022-08-18T18:43:39.350Z,30.90
2022-08-18T18:46:22.852Z,30.90
2022-08-18T18:49:19.088Z,30.80
2022-08-18T18:52:02.684Z,30.80
2022-08-18T18:54:49.647Z,30.70
2022-08-18T18:57:30.077Z,30.60
2022-08-18T19:00:18.346Z,30.50
2022-08-18T19:03:09.314Z,30.50
2022-08-18T19:06:14.035Z,30.40
2022-08-18T19:09:05.912Z,30.30
2022-08-18T19:11:47.845Z,30.20
2022-08-18T19:14:21.888Z,30.10
2022-08-18T19:17:14.825Z,30.00
2022-08-18T19:19:50.039Z,30.00
2022-08-18T19:22:34.340Z,29.90
2022-08-18T19:25:19.238Z,29.70
2022-08-18T19:28:28.658Z,29.40
2022-08-18T19:31:00.217Z,29.40
2022-08-18T19:33:41.798Z,29.30
2022-08-18T19:36:28.207Z,29.20
2022-08-18T19:39:26.017Z,29.20
2022-08-18T19:42:15.225Z,28.90
2022-08-18T19:45:15.483Z,28.40
2022-08-18T19:48:18.229Z,27.60
2022-08-18T19:51:05.422Z,27.60
2022-08-18T19:53:52.650Z,27.60
2022-08-18T19:56:56.305Z,27.20
2022-08-18T19:59:57.631Z,27.00
2022-08-18T20:02:48.994Z,27.10
2022-08-18T20:06:36.084Z,27.10
2022-08-18T20:09:42.139Z,27.00
2022-08-18T20:12:20.800Z,27.40
2022-08-18T20:15:16.514Z,27.70
2022-08-18T20:18:04.626Z,27.90
2022-08-18T20:20:38.129Z,28.10
2022-08-18T20:23:33.383Z,28.10
2022-08-18T20:26:00.834Z,28.20
2022-08-18T20:28:39.911Z,28.20
2022-08-18T20:31:14.154Z,28.10
2022-08-18T20:34:14.394Z,28.10
2022-08-18T20:36:45.338Z,27.90
2022-08-18T20:39:40.820Z,27.70
2022-08-18T20:42:37.766Z,27.70
2022-08-18T20:45:29.418Z,27.50
2022-08-18T20:48:29.580Z,27.40
2022-08-18T20:51:15.625Z,27.30
2022-08-18T20:53:52.420Z,26.80
2022-08-18T20:56:43.606Z,26.60
2022-08-18T20:59:32.373Z,26.60
2022-08-18T21:02:22.955Z,26.60
